San Francisco, California
Traffic Map
Current Weather Conditions
San Francisco, California
Overcast Light Rain
Overcast
54°
Feels Like: 54°
Wind Chill: 54° Ceiling: 1400
Heat Index: 54° Visibility: 3mi
Dew Point: 52° Wind: 18mph
Humidity: 93% Direction: 290° (WNW)
Pressure: 29.94in Gusts: 28mph
Raw Report DataKSFO 200756Z 29016G24KT 3SM -RA BR SCT008 BKN014 OVC022 12/11 A2994 RMK AO2 PK WND 29031/0705 SLP138 P0013 T01220111 401940122
Traffic Incident Summary
Active as of:
Severity:
Category:
InformationThere was an issue retrieving the traffic information for this location. Please try a different location or try again shortly.
Advertisements